CCA925 KSAN-KOAK
Flight info
| Callsign | CCA925 |
|---|---|
| Flight time | 1h 10m |
| Altitude | 36000 |
| Route | PADRZ2 OROSZ COREZ RGOOD EMZOH4 |
| Aircraft | B738/M-SDE2E3FGHIRWXY/LB1 |
Departure
| Time | 2026-04-26 16:23 |
|---|---|
| Airport | San Diego International Airport (KSAN) |
Arrival
| Time | 2026-04-26 17:33 |
|---|---|
| Airport | San Francisco Bay Oakland International Airport (KOAK) |
| Time | Latitude | Longitude | Altitude | Speed | Heading |
|---|---|---|---|---|---|
| 2026-04-26 15:55 | 32.73394 | -117.20047 | 22 ft | 0 kts | 253° |
| 2026-04-26 16:10 | 32.73395 | -117.20042 | 22 ft | 0 kts | 251° |
| 2026-04-26 16:10 | 32.73400 | -117.20027 | 22 ft | 2 kts | 253° |
| 2026-04-26 16:11 | 32.73406 | -117.20008 | 24 ft | 2 kts | 248° |
| 2026-04-26 16:11 | 32.73412 | -117.19990 | 23 ft | 2 kts | 243° |
| 2026-04-26 16:11 | 32.73421 | -117.19973 | 25 ft | 2 kts | 229° |
| 2026-04-26 16:11 | 32.73434 | -117.19961 | 26 ft | 2 kts | 198° |
| 2026-04-26 16:12 | 32.73450 | -117.19956 | 24 ft | 2 kts | 162° |
| 2026-04-26 16:12 | 32.73464 | -117.19965 | 23 ft | 2 kts | 144° |
| 2026-04-26 16:12 | 32.73489 | -117.19991 | 22 ft | 2 kts | 132° |
| 2026-04-26 16:13 | 32.73499 | -117.20006 | 26 ft | 2 kts | 126° |
| 2026-04-26 16:13 | 32.73506 | -117.20019 | 22 ft | 1 kts | 116° |
| 2026-04-26 16:13 | 32.73507 | -117.20021 | 23 ft | 0 kts | 113° |
| 2026-04-26 16:14 | 32.73507 | -117.20018 | 22 ft | 4 kts | 104° |
| 2026-04-26 16:15 | 32.73505 | -117.20010 | 25 ft | 0 kts | 104° |
| 2026-04-26 16:16 | 32.73490 | -117.19941 | 22 ft | 8 kts | 105° |
| 2026-04-26 16:16 | 32.73469 | -117.19859 | 24 ft | 12 kts | 107° |
| 2026-04-26 16:16 | 32.73441 | -117.19746 | 23 ft | 16 kts | 105° |
| 2026-04-26 16:16 | 32.73409 | -117.19611 | 22 ft | 16 kts | 106° |
| 2026-04-26 16:17 | 32.73378 | -117.19484 | 22 ft | 16 kts | 106° |
| 2026-04-26 16:17 | 32.73342 | -117.19337 | 22 ft | 20 kts | 106° |
| 2026-04-26 16:17 | 32.73302 | -117.19170 | 23 ft | 22 kts | 105° |
| 2026-04-26 16:17 | 32.73257 | -117.18982 | 24 ft | 25 kts | 105° |
| 2026-04-26 16:18 | 32.73204 | -117.18769 | 22 ft | 28 kts | 106° |
| 2026-04-26 16:18 | 32.73135 | -117.18484 | 22 ft | 4 kts | 105° |
| 2026-04-26 16:19 | 32.73120 | -117.18419 | 21 ft | 4 kts | 106° |
| 2026-04-26 16:19 | 32.73108 | -117.18370 | 23 ft | 13 kts | 107° |
| 2026-04-26 16:19 | 32.73064 | -117.18119 | 22 ft | 2 kts | 49° |
| 2026-04-26 16:20 | 32.73047 | -117.18079 | 21 ft | 8 kts | 128° |
| 2026-04-26 16:20 | 32.73016 | -117.17985 | 21 ft | 16 kts | 106° |
| 2026-04-26 16:21 | 32.72981 | -117.17851 | 23 ft | 15 kts | 107° |
| 2026-04-26 16:21 | 32.72951 | -117.17698 | 21 ft | 19 kts | 83° |
| 2026-04-26 16:21 | 32.73016 | -117.17608 | 24 ft | 12 kts | 345° |
| 2026-04-26 16:21 | 32.73038 | -117.17650 | 21 ft | 8 kts | 284° |
| 2026-04-26 16:22 | 32.73040 | -117.17658 | 21 ft | 0 kts | 285° |
| 2026-04-26 16:22 | 32.73045 | -117.17681 | 21 ft | 17 kts | 285° |
| 2026-04-26 16:22 | 32.73172 | -117.18211 | 21 ft | 110 kts | 286° |
| 2026-04-26 16:23 | 32.73440 | -117.19309 | 255 ft | 159 kts | 285° |
| 2026-04-26 16:23 | 32.73744 | -117.20583 | 1349 ft | 158 kts | 284° |
| 2026-04-26 16:23 | 32.74032 | -117.21786 | 2526 ft | 149 kts | 293° |
| 2026-04-26 16:23 | 32.74711 | -117.22884 | 2933 ft | 183 kts | 306° |
| 2026-04-26 16:24 | 32.75547 | -117.24193 | 3252 ft | 213 kts | 304° |
| 2026-04-26 16:24 | 32.76297 | -117.25786 | 3764 ft | 224 kts | 294° |
| 2026-04-26 16:24 | 32.77104 | -117.27369 | 4421 ft | 232 kts | 307° |
| 2026-04-26 16:24 | 32.78214 | -117.28800 | 5064 ft | 231 kts | 311° |
| 2026-04-26 16:25 | 32.79253 | -117.30209 | 5707 ft | 234 kts | 307° |
| 2026-04-26 16:25 | 32.80253 | -117.31844 | 6004 ft | 255 kts | 300° |
| 2026-04-26 16:25 | 32.81207 | -117.33695 | 6658 ft | 266 kts | 302° |
| 2026-04-26 16:25 | 32.82274 | -117.35495 | 7599 ft | 267 kts | 304° |
| 2026-04-26 16:26 | 32.83410 | -117.37275 | 8494 ft | 269 kts | 304° |
| 2026-04-26 16:26 | 32.84165 | -117.38448 | 9094 ft | 270 kts | 304° |
| 2026-04-26 16:26 | 32.85715 | -117.40825 | 10207 ft | 274 kts | 303° |
| 2026-04-26 16:26 | 32.86877 | -117.42663 | 10792 ft | 286 kts | 303° |
| 2026-04-26 16:27 | 32.88103 | -117.44683 | 10831 ft | 316 kts | 302° |
| 2026-04-26 16:27 | 32.89407 | -117.46826 | 11622 ft | 315 kts | 303° |
| 2026-04-26 16:27 | 32.90691 | -117.48879 | 12845 ft | 308 kts | 303° |
| 2026-04-26 16:27 | 32.92032 | -117.50885 | 13435 ft | 320 kts | 304° |
| 2026-04-26 16:28 | 32.93420 | -117.52984 | 14197 ft | 324 kts | 303° |
| 2026-04-26 16:28 | 32.94825 | -117.55090 | 14694 ft | 325 kts | 303° |
| 2026-04-26 16:28 | 32.96230 | -117.57205 | 14954 ft | 327 kts | 303° |
| 2026-04-26 16:28 | 32.97653 | -117.59372 | 14991 ft | 328 kts | 303° |
| 2026-04-26 16:29 | 32.99039 | -117.61510 | 15194 ft | 334 kts | 303° |
| 2026-04-26 16:29 | 33.00457 | -117.63715 | 16063 ft | 334 kts | 302° |
| 2026-04-26 16:29 | 33.01867 | -117.65912 | 16971 ft | 334 kts | 302° |
| 2026-04-26 16:29 | 33.03303 | -117.68156 | 17754 ft | 338 kts | 302° |
| 2026-04-26 16:30 | 33.04718 | -117.70373 | 18455 ft | 343 kts | 301° |
| 2026-04-26 16:30 | 33.06196 | -117.72672 | 19104 ft | 348 kts | 303° |
| 2026-04-26 16:30 | 33.07864 | -117.74757 | 19749 ft | 358 kts | 311° |
| 2026-04-26 16:30 | 33.09821 | -117.76698 | 20409 ft | 364 kts | 315° |
| 2026-04-26 16:31 | 33.11788 | -117.78555 | 21041 ft | 367 kts | 314° |
| 2026-04-26 16:31 | 33.13808 | -117.80512 | 21681 ft | 370 kts | 313° |
| 2026-04-26 16:31 | 33.15760 | -117.82475 | 22272 ft | 374 kts | 313° |
| 2026-04-26 16:31 | 33.17742 | -117.84501 | 22861 ft | 378 kts | 313° |
| 2026-04-26 16:32 | 33.19745 | -117.86550 | 23463 ft | 382 kts | 313° |
| 2026-04-26 16:32 | 33.21129 | -117.87934 | 23816 ft | 385 kts | 313° |
| 2026-04-26 16:32 | 33.23887 | -117.90629 | 24560 ft | 388 kts | 314° |
| 2026-04-26 16:32 | 33.26017 | -117.92690 | 25110 ft | 389 kts | 314° |
| 2026-04-26 16:33 | 33.28096 | -117.94704 | 25618 ft | 391 kts | 314° |
| 2026-04-26 16:33 | 33.30216 | -117.96764 | 25984 ft | 394 kts | 314° |
| 2026-04-26 16:33 | 33.32344 | -117.98837 | 25995 ft | 394 kts | 314° |
| 2026-04-26 16:33 | 33.34471 | -118.00914 | 26000 ft | 395 kts | 314° |
| 2026-04-26 16:34 | 33.36595 | -118.02990 | 26014 ft | 395 kts | 314° |
| 2026-04-26 16:34 | 33.38722 | -118.05074 | 26017 ft | 396 kts | 314° |
| 2026-04-26 16:34 | 33.40853 | -118.07163 | 26016 ft | 396 kts | 314° |
| 2026-04-26 16:34 | 33.42985 | -118.09254 | 26015 ft | 397 kts | 314° |
| 2026-04-26 16:35 | 33.45120 | -118.11349 | 26014 ft | 397 kts | 314° |
| 2026-04-26 16:35 | 33.47250 | -118.13441 | 26016 ft | 397 kts | 314° |
| 2026-04-26 16:35 | 33.49385 | -118.15539 | 26015 ft | 396 kts | 314° |
| 2026-04-26 16:35 | 33.51519 | -118.17638 | 26041 ft | 399 kts | 314° |
| 2026-04-26 16:36 | 33.53674 | -118.19760 | 26395 ft | 402 kts | 314° |
| 2026-04-26 16:36 | 33.55830 | -118.21881 | 27006 ft | 401 kts | 314° |
| 2026-04-26 16:36 | 33.58028 | -118.23954 | 27556 ft | 405 kts | 318° |
| 2026-04-26 16:36 | 33.60445 | -118.25749 | 27994 ft | 414 kts | 324° |
| 2026-04-26 16:37 | 33.63068 | -118.27249 | 28403 ft | 422 kts | 330° |
| 2026-04-26 16:37 | 33.65831 | -118.28534 | 28819 ft | 428 kts | 332° |
| 2026-04-26 16:37 | 33.68618 | -118.29796 | 29249 ft | 429 kts | 331° |
| 2026-04-26 16:37 | 33.70487 | -118.30707 | 29539 ft | 429 kts | 330° |
| 2026-04-26 16:38 | 33.74082 | -118.32635 | 30209 ft | 426 kts | 328° |
| 2026-04-26 16:38 | 33.76756 | -118.34140 | 30775 ft | 422 kts | 327° |
| 2026-04-26 16:38 | 33.79432 | -118.35593 | 31208 ft | 423 kts | 329° |
| 2026-04-26 16:38 | 33.82154 | -118.36972 | 31563 ft | 426 kts | 330° |
| 2026-04-26 16:39 | 33.84904 | -118.38317 | 31955 ft | 427 kts | 330° |
| 2026-04-26 16:39 | 33.87645 | -118.39656 | 32417 ft | 425 kts | 330° |
| 2026-04-26 16:39 | 33.90378 | -118.41009 | 32872 ft | 424 kts | 329° |
| 2026-04-26 16:39 | 33.93099 | -118.42376 | 33276 ft | 424 kts | 329° |
| 2026-04-26 16:40 | 33.95817 | -118.43753 | 33661 ft | 424 kts | 329° |
| 2026-04-26 16:40 | 33.98537 | -118.45133 | 34051 ft | 423 kts | 329° |
| 2026-04-26 16:40 | 34.01245 | -118.46505 | 34416 ft | 423 kts | 329° |
| 2026-04-26 16:40 | 34.03960 | -118.47883 | 34729 ft | 423 kts | 329° |
| 2026-04-26 16:41 | 34.06675 | -118.49262 | 35030 ft | 424 kts | 328° |
| 2026-04-26 16:41 | 34.09390 | -118.50642 | 35367 ft | 424 kts | 328° |
| 2026-04-26 16:41 | 34.12108 | -118.52023 | 35641 ft | 423 kts | 328° |
| 2026-04-26 16:41 | 34.14822 | -118.53405 | 35924 ft | 424 kts | 328° |
| 2026-04-26 16:42 | 34.19367 | -118.55726 | 35993 ft | 430 kts | 328° |
| 2026-04-26 16:42 | 34.24874 | -118.58532 | 35982 ft | 426 kts | 328° |
| 2026-04-26 16:43 | 34.30290 | -118.61295 | 35993 ft | 422 kts | 328° |
| 2026-04-26 16:43 | 34.35745 | -118.64008 | 35997 ft | 425 kts | 329° |
| 2026-04-26 16:44 | 34.41244 | -118.66684 | 35998 ft | 427 kts | 329° |
| 2026-04-26 16:44 | 34.46617 | -118.69665 | 35987 ft | 422 kts | 323° |
| 2026-04-26 16:45 | 34.51640 | -118.73257 | 35995 ft | 418 kts | 319° |
| 2026-04-26 16:45 | 34.56557 | -118.77025 | 36000 ft | 419 kts | 320° |
| 2026-04-26 16:46 | 34.61544 | -118.80702 | 36002 ft | 419 kts | 321° |
| 2026-04-26 16:46 | 34.66571 | -118.84301 | 35998 ft | 419 kts | 321° |
| 2026-04-26 16:47 | 34.71591 | -118.87863 | 35999 ft | 417 kts | 321° |
| 2026-04-26 16:47 | 34.76602 | -118.91423 | 36000 ft | 417 kts | 321° |
| 2026-04-26 16:48 | 34.81603 | -118.94985 | 35997 ft | 415 kts | 321° |
| 2026-04-26 16:48 | 34.86557 | -118.98520 | 35995 ft | 416 kts | 321° |
| 2026-04-26 16:49 | 34.91560 | -119.02099 | 36003 ft | 419 kts | 321° |
| 2026-04-26 16:49 | 34.96594 | -119.05703 | 35999 ft | 420 kts | 321° |
| 2026-04-26 16:50 | 35.01637 | -119.09316 | 36006 ft | 421 kts | 321° |
| 2026-04-26 16:50 | 35.06695 | -119.12947 | 36000 ft | 422 kts | 321° |
| 2026-04-26 16:51 | 35.11761 | -119.16587 | 35998 ft | 423 kts | 321° |
| 2026-04-26 16:51 | 35.16827 | -119.20234 | 35994 ft | 423 kts | 321° |
| 2026-04-26 16:52 | 35.21068 | -119.23290 | 35999 ft | 422 kts | 322° |
| 2026-04-26 16:52 | 35.26944 | -119.27532 | 35992 ft | 421 kts | 322° |
| 2026-04-26 16:53 | 35.31168 | -119.30585 | 35967 ft | 420 kts | 321° |
| 2026-04-26 16:53 | 35.37008 | -119.34813 | 35994 ft | 419 kts | 321° |
| 2026-04-26 16:54 | 35.42023 | -119.38451 | 35999 ft | 418 kts | 321° |
| 2026-04-26 16:54 | 35.47030 | -119.42088 | 35991 ft | 419 kts | 321° |
| 2026-04-26 16:55 | 35.52041 | -119.45733 | 36013 ft | 419 kts | 321° |
| 2026-04-26 16:55 | 35.56989 | -119.49499 | 35994 ft | 415 kts | 316° |
| 2026-04-26 16:56 | 35.63567 | -119.56264 | 36002 ft | 411 kts | 311° |
| 2026-04-26 16:57 | 35.67908 | -119.60845 | 36001 ft | 412 kts | 312° |
| 2026-04-26 16:57 | 35.74517 | -119.67649 | 36000 ft | 414 kts | 313° |
| 2026-04-26 16:58 | 35.78192 | -119.71417 | 35998 ft | 414 kts | 313° |
| 2026-04-26 16:59 | 35.85596 | -119.79030 | 35999 ft | 416 kts | 312° |
| 2026-04-26 17:00 | 35.94354 | -119.88320 | 36002 ft | 412 kts | 309° |
| 2026-04-26 17:00 | 36.00485 | -119.95747 | 36009 ft | 412 kts | 308° |
| 2026-04-26 17:01 | 36.04592 | -120.00696 | 36017 ft | 413 kts | 308° |
| 2026-04-26 17:01 | 36.08727 | -120.05627 | 36008 ft | 413 kts | 308° |
| 2026-04-26 17:02 | 36.12873 | -120.10559 | 36008 ft | 414 kts | 308° |
| 2026-04-26 17:02 | 36.17018 | -120.15498 | 35853 ft | 416 kts | 309° |
| 2026-04-26 17:03 | 36.19081 | -120.17961 | 35466 ft | 415 kts | 309° |
| 2026-04-26 17:03 | 36.21147 | -120.20431 | 35332 ft | 412 kts | 311° |
| 2026-04-26 17:03 | 36.23209 | -120.22900 | 34567 ft | 409 kts | 309° |
| 2026-04-26 17:03 | 36.25250 | -120.25331 | 34185 ft | 406 kts | 309° |
| 2026-04-26 17:04 | 36.27277 | -120.27751 | 33770 ft | 403 kts | 309° |
| 2026-04-26 17:04 | 36.29283 | -120.30151 | 33319 ft | 400 kts | 309° |
| 2026-04-26 17:04 | 36.31302 | -120.32570 | 32897 ft | 397 kts | 309° |
| 2026-04-26 17:04 | 36.33277 | -120.34940 | 32490 ft | 393 kts | 309° |
| 2026-04-26 17:05 | 36.35206 | -120.37257 | 32097 ft | 390 kts | 309° |
| 2026-04-26 17:05 | 36.37148 | -120.39591 | 31696 ft | 387 kts | 309° |
| 2026-04-26 17:05 | 36.39078 | -120.41912 | 31299 ft | 385 kts | 309° |
| 2026-04-26 17:05 | 36.40996 | -120.44221 | 30907 ft | 383 kts | 309° |
| 2026-04-26 17:06 | 36.42899 | -120.46514 | 30510 ft | 381 kts | 309° |
| 2026-04-26 17:06 | 36.44794 | -120.48798 | 30118 ft | 379 kts | 309° |
| 2026-04-26 17:06 | 36.46684 | -120.51079 | 29656 ft | 378 kts | 310° |
| 2026-04-26 17:06 | 36.48560 | -120.53343 | 29233 ft | 375 kts | 310° |
| 2026-04-26 17:07 | 36.50422 | -120.55590 | 28793 ft | 372 kts | 310° |
| 2026-04-26 17:07 | 36.52269 | -120.57822 | 28373 ft | 368 kts | 310° |
| 2026-04-26 17:07 | 36.54103 | -120.60031 | 27966 ft | 366 kts | 311° |
| 2026-04-26 17:07 | 36.55976 | -120.62166 | 27553 ft | 364 kts | 312° |
| 2026-04-26 17:08 | 36.57872 | -120.64246 | 27153 ft | 363 kts | 313° |
| 2026-04-26 17:08 | 36.59768 | -120.66307 | 26759 ft | 361 kts | 313° |
| 2026-04-26 17:08 | 36.61647 | -120.68357 | 26370 ft | 359 kts | 313° |
| 2026-04-26 17:08 | 36.63512 | -120.70407 | 25954 ft | 358 kts | 313° |
| 2026-04-26 17:09 | 36.65373 | -120.72462 | 25533 ft | 356 kts | 313° |
| 2026-04-26 17:09 | 36.66596 | -120.73816 | 25271 ft | 356 kts | 313° |
| 2026-04-26 17:09 | 36.69050 | -120.76547 | 24900 ft | 353 kts | 315° |
| 2026-04-26 17:09 | 36.70888 | -120.78594 | 24430 ft | 352 kts | 316° |
| 2026-04-26 17:10 | 36.72714 | -120.80621 | 24012 ft | 350 kts | 316° |
| 2026-04-26 17:10 | 36.74524 | -120.82632 | 23616 ft | 348 kts | 316° |
| 2026-04-26 17:10 | 36.76323 | -120.84632 | 23163 ft | 345 kts | 316° |
| 2026-04-26 17:10 | 36.78105 | -120.86614 | 22730 ft | 342 kts | 316° |
| 2026-04-26 17:11 | 36.79873 | -120.88574 | 22305 ft | 338 kts | 316° |
| 2026-04-26 17:11 | 36.81624 | -120.90511 | 21910 ft | 335 kts | 316° |
| 2026-04-26 17:11 | 36.83353 | -120.92425 | 21531 ft | 331 kts | 316° |
| 2026-04-26 17:11 | 36.85065 | -120.94322 | 21161 ft | 327 kts | 316° |
| 2026-04-26 17:12 | 36.88438 | -120.98065 | 20440 ft | 321 kts | 316° |
| 2026-04-26 17:12 | 36.90101 | -120.99913 | 20086 ft | 319 kts | 316° |
| 2026-04-26 17:13 | 36.93393 | -121.03574 | 19368 ft | 314 kts | 316° |
| 2026-04-26 17:13 | 36.94995 | -121.05357 | 19031 ft | 312 kts | 316° |
| 2026-04-26 17:13 | 36.98213 | -121.08944 | 18343 ft | 308 kts | 315° |
| 2026-04-26 17:14 | 36.99806 | -121.10721 | 17956 ft | 306 kts | 316° |
| 2026-04-26 17:14 | 37.02954 | -121.14236 | 17227 ft | 301 kts | 316° |
| 2026-04-26 17:14 | 37.04507 | -121.15971 | 16889 ft | 298 kts | 316° |
| 2026-04-26 17:15 | 37.07570 | -121.19396 | 16217 ft | 293 kts | 316° |
| 2026-04-26 17:15 | 37.09083 | -121.21089 | 15885 ft | 291 kts | 316° |
| 2026-04-26 17:15 | 37.10586 | -121.22773 | 15558 ft | 289 kts | 316° |
| 2026-04-26 17:16 | 37.12080 | -121.24446 | 15233 ft | 288 kts | 316° |
| 2026-04-26 17:16 | 37.13566 | -121.26116 | 14896 ft | 286 kts | 315° |
| 2026-04-26 17:16 | 37.15037 | -121.27808 | 14561 ft | 288 kts | 315° |
| 2026-04-26 17:16 | 37.16507 | -121.29518 | 14195 ft | 288 kts | 315° |
| 2026-04-26 17:17 | 37.17972 | -121.31226 | 13834 ft | 288 kts | 315° |
| 2026-04-26 17:17 | 37.19440 | -121.32937 | 13443 ft | 287 kts | 315° |
| 2026-04-26 17:17 | 37.20900 | -121.34638 | 13068 ft | 286 kts | 315° |
| 2026-04-26 17:17 | 37.22355 | -121.36332 | 12705 ft | 285 kts | 315° |
| 2026-04-26 17:18 | 37.23803 | -121.38020 | 12346 ft | 284 kts | 315° |
| 2026-04-26 17:18 | 37.25246 | -121.39701 | 11994 ft | 283 kts | 315° |
| 2026-04-26 17:18 | 37.26686 | -121.41379 | 11641 ft | 282 kts | 315° |
| 2026-04-26 17:18 | 37.28119 | -121.43049 | 11301 ft | 280 kts | 315° |
| 2026-04-26 17:19 | 37.30968 | -121.46374 | 10618 ft | 279 kts | 315° |
| 2026-04-26 17:19 | 37.32385 | -121.48030 | 10284 ft | 278 kts | 315° |
| 2026-04-26 17:19 | 37.33803 | -121.49686 | 9941 ft | 278 kts | 315° |
| 2026-04-26 17:20 | 37.35216 | -121.51338 | 9564 ft | 278 kts | 315° |
| 2026-04-26 17:20 | 37.35693 | -121.51896 | 9436 ft | 278 kts | 315° |
| 2026-04-26 17:20 | 37.38039 | -121.54633 | 8891 ft | 274 kts | 315° |
| 2026-04-26 17:20 | 37.39438 | -121.56234 | 8641 ft | 270 kts | 315° |
| 2026-04-26 17:21 | 37.40818 | -121.57805 | 8395 ft | 266 kts | 315° |
| 2026-04-26 17:21 | 37.42181 | -121.59358 | 8161 ft | 262 kts | 315° |
| 2026-04-26 17:21 | 37.43520 | -121.60885 | 7927 ft | 258 kts | 315° |
| 2026-04-26 17:21 | 37.44736 | -121.62489 | 7716 ft | 249 kts | 304° |
| 2026-04-26 17:22 | 37.45728 | -121.64248 | 7508 ft | 244 kts | 302° |
| 2026-04-26 17:22 | 37.46679 | -121.66004 | 7306 ft | 242 kts | 302° |
| 2026-04-26 17:22 | 37.47636 | -121.67733 | 7080 ft | 240 kts | 302° |
| 2026-04-26 17:22 | 37.48587 | -121.69438 | 6902 ft | 235 kts | 302° |
| 2026-04-26 17:23 | 37.49523 | -121.71094 | 6774 ft | 229 kts | 302° |
| 2026-04-26 17:23 | 37.50444 | -121.72716 | 6610 ft | 225 kts | 302° |
| 2026-04-26 17:23 | 37.51348 | -121.74304 | 6469 ft | 222 kts | 302° |
| 2026-04-26 17:23 | 37.52243 | -121.75875 | 6324 ft | 219 kts | 302° |
| 2026-04-26 17:24 | 37.53084 | -121.77460 | 6164 ft | 216 kts | 290° |
| 2026-04-26 17:24 | 37.53374 | -121.79279 | 6034 ft | 210 kts | 271° |
| 2026-04-26 17:24 | 37.53522 | -121.81107 | 5864 ft | 210 kts | 275° |
| 2026-04-26 17:24 | 37.53744 | -121.82916 | 5711 ft | 208 kts | 276° |
| 2026-04-26 17:25 | 37.53974 | -121.84700 | 5585 ft | 206 kts | 275° |
| 2026-04-26 17:25 | 37.54192 | -121.86474 | 5435 ft | 209 kts | 275° |
| 2026-04-26 17:25 | 37.54410 | -121.88293 | 5332 ft | 211 kts | 275° |
| 2026-04-26 17:25 | 37.54630 | -121.90153 | 5149 ft | 213 kts | 276° |
| 2026-04-26 17:26 | 37.54846 | -121.91965 | 4992 ft | 211 kts | 275° |
| 2026-04-26 17:26 | 37.55060 | -121.93770 | 4872 ft | 205 kts | 275° |
| 2026-04-26 17:26 | 37.55266 | -121.95527 | 4730 ft | 201 kts | 275° |
| 2026-04-26 17:26 | 37.55469 | -121.97272 | 4595 ft | 202 kts | 275° |
| 2026-04-26 17:27 | 37.55673 | -121.99024 | 4435 ft | 201 kts | 277° |
| 2026-04-26 17:27 | 37.56259 | -122.00628 | 4190 ft | 208 kts | 308° |
| 2026-04-26 17:27 | 37.57248 | -122.01969 | 3924 ft | 211 kts | 308° |
| 2026-04-26 17:27 | 37.58190 | -122.03375 | 3644 ft | 206 kts | 306° |
| 2026-04-26 17:28 | 37.59066 | -122.04736 | 3363 ft | 194 kts | 307° |
| 2026-04-26 17:28 | 37.59896 | -122.06011 | 3110 ft | 182 kts | 307° |
| 2026-04-26 17:28 | 37.60682 | -122.07201 | 2837 ft | 171 kts | 306° |
| 2026-04-26 17:28 | 37.61419 | -122.08317 | 2600 ft | 159 kts | 306° |
| 2026-04-26 17:29 | 37.61884 | -122.09020 | 2487 ft | 149 kts | 307° |
| 2026-04-26 17:29 | 37.62309 | -122.09657 | 2384 ft | 140 kts | 306° |
| 2026-04-26 17:29 | 37.63123 | -122.10877 | 2117 ft | 134 kts | 307° |
| 2026-04-26 17:29 | 37.63718 | -122.11775 | 1954 ft | 135 kts | 307° |
| 2026-04-26 17:30 | 37.64334 | -122.12702 | 1787 ft | 140 kts | 306° |
| 2026-04-26 17:30 | 37.64961 | -122.13644 | 1602 ft | 141 kts | 306° |
| 2026-04-26 17:30 | 37.65580 | -122.14572 | 1411 ft | 136 kts | 307° |
| 2026-04-26 17:30 | 37.66183 | -122.15458 | 1237 ft | 131 kts | 306° |
| 2026-04-26 17:31 | 37.66786 | -122.16358 | 1054 ft | 138 kts | 307° |
| 2026-04-26 17:31 | 37.67413 | -122.17291 | 881 ft | 140 kts | 307° |
| 2026-04-26 17:31 | 37.68036 | -122.18219 | 673 ft | 138 kts | 307° |
| 2026-04-26 17:31 | 37.68651 | -122.19134 | 495 ft | 136 kts | 307° |
| 2026-04-26 17:32 | 37.69258 | -122.20053 | 295 ft | 137 kts | 306° |
| 2026-04-26 17:32 | 37.69874 | -122.20998 | 122 ft | 142 kts | 308° |
| 2026-04-26 17:32 | 37.70494 | -122.21937 | 14 ft | 133 kts | 309° |
| 2026-04-26 17:32 | 37.71021 | -122.22731 | 7 ft | 98 kts | 310° |
| 2026-04-26 17:33 | 37.71365 | -122.23247 | 7 ft | 56 kts | 310° |
| 2026-04-26 17:33 | 37.71577 | -122.23566 | 6 ft | 45 kts | 310° |
| 2026-04-26 17:33 | 37.71768 | -122.23854 | 8 ft | 41 kts | 310° |
| 2026-04-26 17:34 | 37.71963 | -122.24013 | 8 ft | 10 kts | 34° |
| 2026-04-26 17:34 | 37.71997 | -122.23948 | 8 ft | 8 kts | 95° |
| 2026-04-26 17:34 | 37.71969 | -122.23885 | 8 ft | 9 kts | 132° |
| 2026-04-26 17:34 | 37.71923 | -122.23817 | 9 ft | 11 kts | 129° |
| 2026-04-26 17:35 | 37.71878 | -122.23729 | 9 ft | 13 kts | 120° |
| 2026-04-26 17:35 | 37.71828 | -122.23621 | 10 ft | 16 kts | 121° |
| 2026-04-26 17:35 | 37.71767 | -122.23492 | 8 ft | 19 kts | 121° |
| 2026-04-26 17:35 | 37.71684 | -122.23343 | 8 ft | 22 kts | 129° |
| 2026-04-26 17:36 | 37.71601 | -122.23230 | 8 ft | 0 kts | 133° |
| 2026-04-26 17:36 | 37.71600 | -122.23229 | 8 ft | 1 kts | 133° |
| 2026-04-26 17:36 | 37.71585 | -122.23208 | 8 ft | 5 kts | 131° |
| 2026-04-26 17:37 | 37.71551 | -122.23156 | 8 ft | 10 kts | 129° |
| 2026-04-26 17:37 | 37.71493 | -122.23065 | 8 ft | 16 kts | 129° |
| 2026-04-26 17:37 | 37.71416 | -122.22949 | 8 ft | 18 kts | 130° |
| 2026-04-26 17:38 | 37.71222 | -122.22659 | 8 ft | 21 kts | 130° |
| 2026-04-26 17:38 | 37.71125 | -122.22513 | 8 ft | 22 kts | 130° |
| 2026-04-26 17:38 | 37.71015 | -122.22348 | 8 ft | 27 kts | 130° |
| 2026-04-26 17:38 | 37.70889 | -122.22159 | 8 ft | 29 kts | 130° |
| 2026-04-26 17:39 | 37.70775 | -122.21989 | 8 ft | 25 kts | 130° |
| 2026-04-26 17:39 | 37.70680 | -122.21833 | 9 ft | 10 kts | 97° |
| 2026-04-26 17:39 | 37.70722 | -122.21750 | 8 ft | 13 kts | 41° |
| 2026-04-26 17:39 | 37.70793 | -122.21674 | 8 ft | 14 kts | 40° |
| 2026-04-26 17:40 | 37.70864 | -122.21587 | 8 ft | 15 kts | 64° |
| 2026-04-26 17:40 | 37.70883 | -122.21506 | 8 ft | 13 kts | 69° |
| 2026-04-26 17:40 | 37.70973 | -122.21413 | 9 ft | 12 kts | 38° |
| 2026-04-26 17:40 | 37.70984 | -122.21362 | 8 ft | 4 kts | 113° |
| 2026-04-26 17:41 | 37.70969 | -122.21332 | 9 ft | 4 kts | 127° |
| 2026-04-26 17:41 | 37.70955 | -122.21309 | 8 ft | 0 kts | 126° |